Time;durP1;ratioP1;P1;durP2;ratioP2;P2;SDS_P1;SDS_P2;PMS_P1;PMS_P2;Temp;Humidity;BMP_temperature;BMP_pressure;BME280_temperature;BME280_humidity;BME280_pressure;Samples;Min_cycle;Max_cycle;Signal;HPM_P1;HPM_P2
2023/12/07 00:01:22;;;;;;;17.20;11.73;;;;;;;-0.20;100.00;100470.50;5075129;28;20263;-57
2023/12/07 00:03:47;;;;;;;16.57;12.03;;;;;;;-0.22;100.00;100475.56;5079125;28;20225;-57
2023/12/07 00:06:12;;;;;;;14.80;12.30;;;;;;;-0.34;100.00;100475.63;5075163;28;20181;-58
2023/12/07 00:08:38;;;;;;;16.73;12.60;;;;;;;-0.37;100.00;100473.94;5073660;28;20210;-57
2023/12/07 00:11:03;;;;;;;15.43;12.20;;;;;;;-0.39;100.00;100480.66;5072600;28;20225;-57
2023/12/07 00:13:28;;;;;;;14.40;11.90;;;;;;;-0.38;100.00;100486.59;5082257;28;20174;-57
2023/12/07 00:15:54;;;;;;;16.63;12.87;;;;;;;-0.26;100.00;100480.63;5074853;28;20189;-57
2023/12/07 00:18:19;;;;;;;17.43;12.67;;;;;;;-0.39;100.00;100489.97;5067051;28;20287;-57
2023/12/07 00:20:44;;;;;;;16.23;13.23;;;;;;;-0.43;100.00;100486.59;5049857;28;20290;-58
2023/12/07 00:23:10;;;;;;;14.87;12.27;;;;;;;-0.57;100.00;100489.16;5071537;28;20182;-58
2023/12/07 00:25:35;;;;;;;17.43;12.17;;;;;;;-0.63;100.00;100483.28;5074988;28;20508;-57
2023/12/07 00:28:00;;;;;;;18.30;12.40;;;;;;;-0.70;100.00;100488.34;5073571;28;20194;-57
2023/12/07 00:30:25;;;;;;;16.20;11.93;;;;;;;-0.82;100.00;100494.25;5046470;27;20300;-58
2023/12/07 00:32:51;;;;;;;16.97;12.97;;;;;;;-0.74;100.00;100501.00;5086223;28;20181;-56
2023/12/07 00:35:16;;;;;;;16.83;12.17;;;;;;;-0.87;100.00;100502.69;5060857;28;20538;-57
2023/12/07 00:37:41;;;;;;;21.83;13.77;;;;;;;-0.93;100.00;100505.22;5067666;28;20225;-56
2023/12/07 00:40:10;;;;;;;20.17;14.27;;;;;;;-0.91;100.00;100501.00;5045085;28;20202;-57
2023/12/07 00:42:35;;;;;;;18.50;13.97;;;;;;;-0.91;100.00;100499.31;5056062;28;20171;-57
2023/12/07 00:45:01;;;;;;;17.43;13.80;;;;;;;-0.82;100.00;100504.38;5054702;28;20189;-58
2023/12/07 00:47:26;;;;;;;17.63;13.07;;;;;;;-0.84;100.00;100498.47;5054183;28;20522;-59
2023/12/07 00:49:51;;;;;;;18.70;13.80;;;;;;;-0.77;100.00;100501.00;5054853;28;20178;-59
2023/12/07 00:52:16;;;;;;;17.27;13.33;;;;;;;-0.88;100.00;100506.03;5055859;28;20225;-57
2023/12/07 00:54:42;;;;;;;19.80;12.43;;;;;;;-0.80;100.00;100503.53;5063797;28;20182;-57
2023/12/07 00:57:07;;;;;;;17.03;12.97;;;;;;;-0.72;100.00;100506.88;5058402;28;20189;-56
2023/12/07 00:59:36;;;;;;;19.37;13.27;;;;;;;-0.71;100.00;100506.88;5053523;28;20198;-56
2023/12/07 01:02:05;;;;;;;17.63;14.87;;;;;;;-0.58;100.00;100505.16;5059281;28;20228;-56
2023/12/07 01:04:31;;;;;;;21.10;13.33;;;;;;;-0.56;100.00;100516.13;5054497;28;20174;-58
2023/12/07 01:06:56;;;;;;;17.20;14.30;;;;;;;-0.50;100.00;100516.13;5054858;28;20202;-58
2023/12/07 01:09:22;;;;;;;19.00;14.70;;;;;;;-0.41;100.00;100516.91;5054889;28;20189;-57
2023/12/07 01:11:48;;;;;;;22.17;13.93;;;;;;;-0.29;100.00;100521.94;5057795;28;20278;-57
2023/12/07 01:14:13;;;;;;;19.53;14.30;;;;;;;-0.30;100.00;100524.47;5056717;28;20621;-58
2023/12/07 01:16:39;;;;;;;20.10;13.63;;;;;;;-0.26;100.00;100531.19;5054302;28;20182;-57
2023/12/07 01:19:04;;;;;;;18.37;14.13;;;;;;;-0.24;100.00;100535.41;5053749;28;20606;-57
2023/12/07 01:21:29;;;;;;;19.17;14.37;;;;;;;-0.34;100.00;100531.22;5055298;28;20706;-57
2023/12/07 01:23:54;;;;;;;20.53;14.57;;;;;;;-0.27;100.00;100535.44;5058686;28;20184;-58
2023/12/07 01:26:19;;;;;;;16.83;12.23;;;;;;;-0.46;100.00;100528.72;5054733;28;20286;-58
2023/12/07 01:28:45;;;;;;;20.87;13.37;;;;;;;-0.54;100.00;100538.84;5053928;28;20548;-58
2023/12/07 01:31:10;;;;;;;25.80;13.13;;;;;;;-0.63;100.00;100544.78;5052438;28;20315;-56
2023/12/07 01:33:35;;;;;;;18.17;12.83;;;;;;;-0.74;100.00;100538.88;5069158;28;20173;-58
2023/12/07 01:36:01;;;;;;;18.10;13.10;;;;;;;-0.77;100.00;100538.88;5072593;28;20351;-58
2023/12/07 01:38:26;;;;;;;16.87;12.57;;;;;;;-0.91;100.00;100533.84;5072748;28;20201;-58
2023/12/07 01:40:51;;;;;;;18.33;13.07;;;;;;;-0.83;100.00;100539.75;5069083;28;20294;-57
2023/12/07 01:43:17;;;;;;;16.00;12.90;;;;;;;-0.82;100.00;100538.88;5079474;28;20173;-57
2023/12/07 01:45:42;;;;;;;17.90;13.50;;;;;;;-0.96;100.00;100541.41;5072548;28;20940;-57
2023/12/07 01:48:08;;;;;;;15.47;12.10;;;;;;;-0.93;100.00;100545.63;5072420;28;20233;-58
2023/12/07 01:50:33;;;;;;;17.27;11.90;;;;;;;-1.08;100.00;100552.38;5063890;28;20238;-58
2023/12/07 01:53:04;;;;;;;17.03;12.73;;;;;;;-1.14;100.00;100554.88;5073036;28;20701;-57
2023/12/07 01:55:31;;;;;;;17.00;13.13;;;;;;;-1.29;100.00;100550.63;5070696;28;20635;-57
2023/12/07 01:57:57;;;;;;;20.23;13.37;;;;;;;-1.27;100.00;100550.66;5053005;28;20170;-56
2023/12/07 02:00:22;;;;;;;13.83;12.17;;;;;;;-1.39;100.00;100552.31;5046400;28;20229;-56
2023/12/07 02:02:50;;;;;;;18.40;13.87;;;;;;;-1.47;100.00;100544.72;5066292;28;20263;-57
2023/12/07 02:05:16;;;;;;;15.00;12.87;;;;;;;-1.42;100.00;100539.69;5053919;28;20192;-56
2023/12/07 02:07:42;;;;;;;21.40;14.77;;;;;;;-1.55;100.00;100543.00;5053262;28;20178;-56
2023/12/07 02:10:08;;;;;;;21.03;15.10;;;;;;;-1.56;100.00;100546.38;5043956;28;20270;-56
2023/12/07 02:12:34;;;;;;;23.73;14.23;;;;;;;-1.57;100.00;100547.25;5067253;28;20264;-56
2023/12/07 02:15:01;;;;;;;16.10;13.70;;;;;;;-1.71;100.00;100548.03;5054112;28;20510;-57
2023/12/07 02:17:40;;;;;;;18.77;14.27;;;;;;;-1.59;100.00;100557.31;5052685;28;20338;-55
2023/12/07 02:20:17;;;;;;;18.10;13.63;;;;;;;-1.64;100.00;100562.34;5041783;28;20208;-56
2023/12/07 02:22:48;;;;;;;22.13;13.97;;;;;;;-1.56;100.00;100557.31;5065819;28;20622;-58
2023/12/07 02:25:16;;;;;;;21.40;13.50;;;;;;;-1.54;100.00;100558.19;5040262;28;20189;-57
2023/12/07 02:27:45;;;;;;;19.37;13.27;;;;;;;-1.59;100.00;100564.88;5052553;28;20192;-58
2023/12/07 02:30:11;;;;;;;17.93;14.03;;;;;;;-1.62;100.00;100564.88;5044068;28;20625;-57
2023/12/07 02:32:38;;;;;;;21.40;14.47;;;;;;;-1.72;100.00;100555.59;5066744;28;20188;-56
2023/12/07 02:35:04;;;;;;;19.33;14.40;;;;;;;-1.77;100.00;100558.09;5053417;28;20188;-57
2023/12/07 02:37:37;;;;;;;17.90;13.40;;;;;;;-1.83;100.00;100561.44;5052434;28;20224;-57
2023/12/07 02:40:04;;;;;;;17.63;13.63;;;;;;;-1.68;100.00;100559.81;5045732;28;20583;-57
2023/12/07 02:42:31;;;;;;;15.30;12.67;;;;;;;-1.78;100.00;100561.47;5066826;28;20642;-57
2023/12/07 02:44:57;;;;;;;22.57;14.33;;;;;;;-1.68;100.00;100559.81;5051338;28;20189;-56
2023/12/07 02:47:22;;;;;;;18.57;14.43;;;;;;;-1.66;100.00;100564.03;5066827;28;20181;-56
2023/12/07 02:49:47;;;;;;;18.43;12.53;;;;;;;-1.67;100.00;100564.84;5071834;28;20185;-56
2023/12/07 02:52:13;;;;;;;16.23;13.30;;;;;;;-1.71;100.00;100562.31;5063554;28;20262;-57
2023/12/07 02:54:38;;;;;;;22.30;13.43;;;;;;;-1.92;100.00;100563.06;5071548;28;20177;-58
2023/12/07 02:57:04;;;;;;;16.13;13.20;;;;;;;-1.79;100.00;100562.28;5070881;28;20180;-57
2023/12/07 02:59:29;;;;;;;17.80;13.83;;;;;;;-1.87;100.00;100557.22;5070655;28;20262;-57
2023/12/07 03:01:54;;;;;;;19.83;14.20;;;;;;;-1.99;100.00;100554.66;5075443;28;20307;-57
2023/12/07 03:04:20;;;;;;;17.17;13.43;;;;;;;-1.94;100.00;100560.56;5072735;28;20183;-57
2023/12/07 03:06:45;;;;;;;18.53;14.03;;;;;;;-2.02;100.00;100560.53;5070657;28;20181;-57
2023/12/07 03:09:10;;;;;;;16.03;12.83;;;;;;;-1.97;100.00;100560.56;5071463;28;20180;-57
2023/12/07 03:11:35;;;;;;;18.60;14.17;;;;;;;-1.89;100.00;100573.19;5071978;28;20632;-56
2023/12/07 03:14:01;;;;;;;20.07;14.10;;;;;;;-1.88;100.00;100569.84;5074686;28;20169;-58
2023/12/07 03:16:26;;;;;;;20.50;13.73;;;;;;;-1.97;100.00;100573.16;5069902;28;20177;-57
2023/12/07 03:18:51;;;;;;;18.27;13.10;;;;;;;-1.87;100.00;100568.97;5069877;28;20212;-57
2023/12/07 03:21:16;;;;;;;18.63;14.43;;;;;;;-1.83;100.00;100563.94;5069732;28;20231;-56
2023/12/07 03:23:42;;;;;;;18.83;14.37;;;;;;;-1.92;100.00;100566.44;5076637;28;20177;-56
2023/12/07 03:26:07;;;;;;;18.00;13.63;;;;;;;-1.99;100.00;100564.72;5070648;28;20179;-57
2023/12/07 03:28:32;;;;;;;20.57;13.80;;;;;;;-2.10;100.00;100564.66;5057289;28;20726;-58
2023/12/07 03:30:57;;;;;;;19.80;13.80;;;;;;;-2.04;100.00;100563.88;5048448;28;20226;-58
2023/12/07 03:33:23;;;;;;;24.83;13.27;;;;;;;-1.97;100.00;100563.06;5063808;28;20177;-57
2023/12/07 03:35:49;;;;;;;16.63;12.73;;;;;;;-2.04;100.00;100564.72;5071525;28;20185;-57
2023/12/07 03:38:14;;;;;;;21.23;13.67;;;;;;;-2.09;100.00;100570.56;5066695;28;20533;-57
2023/12/07 03:40:39;;;;;;;17.87;13.47;;;;;;;-1.96;100.00;100565.59;5056148;28;20748;-57
2023/12/07 03:43:05;;;;;;;17.17;12.47;;;;;;;-1.88;100.00;100564.78;5075539;28;20264;-57
2023/12/07 03:45:30;;;;;;;19.83;13.83;;;;;;;-1.90;100.00;100564.75;5071256;28;20723;-57
2023/12/07 03:47:55;;;;;;;19.20;13.67;;;;;;;-1.97;100.00;100571.47;5069585;28;20611;-57
2023/12/07 03:50:21;;;;;;;20.97;13.70;;;;;;;-1.89;100.00;100574.00;5062895;28;20188;-57
2023/12/07 03:52:46;;;;;;;18.60;13.53;;;;;;;-2.03;100.00;100583.22;5062485;28;20631;-57
2023/12/07 03:55:11;;;;;;;25.17;15.03;;;;;;;-1.93;100.00;100581.56;5070901;28;20172;-58
2023/12/07 03:57:37;;;;;;;20.57;13.37;;;;;;;-2.04;100.00;100581.53;5053390;28;20204;-57
2023/12/07 04:00:04;;;;;;;19.20;13.97;;;;;;;-1.92;100.00;100580.72;5048680;28;20675;-57
2023/12/07 04:02:32;;;;;;;18.80;14.00;;;;;;;-1.88;100.00;100582.44;5065921;28;20210;-57
2023/12/07 04:05:01;;;;;;;18.73;13.30;;;;;;;-2.03;100.00;100589.09;5051470;28;20674;-56
2023/12/07 04:07:26;;;;;;;24.33;15.00;;;;;;;-2.02;100.00;100589.91;5051053;28;20212;-57
2023/12/07 04:09:52;;;;;;;17.67;13.57;;;;;;;-1.95;100.00;100592.50;5051463;28;20217;-57
2023/12/07 04:12:17;;;;;;;16.73;13.63;;;;;;;-1.97;100.00;100600.91;5056536;28;20224;-57
2023/12/07 04:14:42;;;;;;;24.07;15.63;;;;;;;-1.84;100.00;100596.75;5051646;28;20682;-57
2023/12/07 04:17:08;;;;;;;21.80;16.07;;;;;;;-1.80;100.00;100588.34;5050488;28;20208;-57
2023/12/07 04:19:33;;;;;;;23.67;15.80;;;;;;;-1.72;100.00;100590.91;5051349;28;20213;-56
2023/12/07 04:21:58;;;;;;;21.90;15.00;;;;;;;-1.88;100.00;100585.78;5069121;28;20221;-57
2023/12/07 04:24:23;;;;;;;25.63;18.67;;;;;;;-1.92;100.00;100588.28;5051870;28;20178;-58
2023/12/07 04:26:49;;;;;;;29.10;18.47;;;;;;;-1.96;100.00;100585.75;5050889;28;20177;-57
2023/12/07 04:29:14;;;;;;;28.43;17.70;;;;;;;-2.13;100.00;100580.63;5050206;28;20602;-56
2023/12/07 04:31:40;;;;;;;23.27;15.87;;;;;;;-2.07;100.00;100586.53;5033083;28;20222;-57
2023/12/07 04:34:05;;;;;;;21.20;16.13;;;;;;;-2.00;100.00;100594.16;5051640;28;20181;-57
2023/12/07 04:36:30;;;;;;;24.20;15.87;;;;;;;-1.93;100.00;100595.03;5055032;28;20201;-57
2023/12/07 04:38:56;;;;;;;21.43;15.57;;;;;;;-1.92;100.00;100601.75;5055688;28;20719;-56
2023/12/07 04:41:21;;;;;;;22.57;16.13;;;;;;;-1.92;100.00;100610.97;5055039;28;20232;-56
2023/12/07 04:43:46;;;;;;;23.83;15.80;;;;;;;-1.93;100.00;100605.09;5060533;28;20660;-57
2023/12/07 04:46:12;;;;;;;23.67;16.37;;;;;;;-2.04;100.00;100609.25;5054934;28;20185;-57
2023/12/07 04:48:37;;;;;;;23.93;15.47;;;;;;;-1.99;100.00;100600.84;5053982;28;20223;-56
2023/12/07 04:51:02;;;;;;;25.33;16.10;;;;;;;-2.20;100.00;100606.63;5052031;28;20227;-57
2023/12/07 04:53:27;;;;;;;23.03;15.83;;;;;;;-2.24;100.00;100597.38;5052939;28;20177;-57
2023/12/07 04:55:53;;;;;;;25.03;15.53;;;;;;;-2.13;100.00;100600.78;5067377;28;20659;-57
2023/12/07 04:58:18;;;;;;;22.53;16.30;;;;;;;-2.12;100.00;100601.66;5054434;28;20188;-57
2023/12/07 05:00:44;;;;;;;24.37;16.43;;;;;;;-2.15;100.00;100604.13;5049156;28;20756;-57
2023/12/07 05:03:09;;;;;;;25.40;15.83;;;;;;;-2.28;100.00;100596.50;5064297;28;20185;-57
2023/12/07 05:05:34;;;;;;;21.47;16.37;;;;;;;-2.30;100.00;100610.75;5053013;28;20205;-57
2023/12/07 05:07:59;;;;;;;23.20;16.63;;;;;;;-2.13;100.00;100607.53;5054076;28;20181;-57
2023/12/07 05:10:25;;;;;;;22.50;15.23;;;;;;;-2.09;100.00;100610.91;5046885;28;20707;-57
2023/12/07 05:12:50;;;;;;;19.90;15.03;;;;;;;-2.31;100.00;100608.25;5066701;28;20181;-57
2023/12/07 05:15:15;;;;;;;19.90;16.03;;;;;;;-2.17;100.00;100613.38;5053658;28;20200;-57
2023/12/07 05:17:41;;;;;;;21.17;15.83;;;;;;;-2.14;100.00;100619.28;5054430;28;20266;-56
2023/12/07 05:20:07;;;;;;;19.40;14.90;;;;;;;-2.09;100.00;100614.25;5045156;28;20219;-57
2023/12/07 05:22:32;;;;;;;22.07;15.97;;;;;;;-2.09;100.00;100621.00;5068329;28;20177;-57
2023/12/07 05:24:57;;;;;;;21.50;15.33;;;;;;;-2.16;100.00;100617.56;5054522;28;20260;-57
2023/12/07 05:27:22;;;;;;;21.63;14.73;;;;;;;-2.18;100.00;100619.25;5054103;28;20182;-57
2023/12/07 05:29:48;;;;;;;23.07;15.93;;;;;;;-2.09;100.00;100619.31;5054452;28;20258;-57
2023/12/07 05:32:13;;;;;;;23.70;15.63;;;;;;;-2.01;100.00;100614.28;5058841;28;20225;-56
2023/12/07 05:34:38;;;;;;;18.77;15.30;;;;;;;-2.08;100.00;100608.38;5054319;28;20173;-57
2023/12/07 05:37:04;;;;;;;24.57;16.77;;;;;;;-2.12;100.00;100612.56;5053793;28;20201;-57
2023/12/07 05:39:30;;;;;;;24.20;16.50;;;;;;;-1.95;100.00;100604.25;5054403;28;20295;-56
2023/12/07 05:41:55;;;;;;;24.30;16.90;;;;;;;-1.86;100.00;100601.78;5057850;28;20679;-58
2023/12/07 05:44:22;;;;;;;21.70;15.93;;;;;;;-2.19;100.00;100604.97;5054819;28;20185;-59
2023/12/07 05:46:48;;;;;;;21.10;17.17;;;;;;;-2.36;100.00;100608.19;5053475;28;20190;-57
2023/12/07 05:49:13;;;;;;;24.47;16.50;;;;;;;-2.29;100.00;100614.16;5054731;28;20192;-56
2023/12/07 05:51:39;;;;;;;17.93;14.70;;;;;;;-2.30;100.00;100610.75;5055949;28;20228;-57
2023/12/07 05:54:05;;;;;;;20.63;15.80;;;;;;;-2.09;100.00;100621.81;5056296;28;20182;-57
2023/12/07 05:56:31;;;;;;;18.47;14.73;;;;;;;-2.02;100.00;100617.66;5055646;28;20177;-57
2023/12/07 05:58:56;;;;;;;18.73;15.50;;;;;;;-1.97;100.00;100621.06;5072907;28;20169;-57
2023/12/07 06:01:22;;;;;;;22.20;15.77;;;;;;;-1.99;100.00;100615.16;5072442;28;20224;-56
2023/12/07 06:03:47;;;;;;;20.67;15.77;;;;;;;-2.00;100.00;100621.91;5078635;28;20188;-57
2023/12/07 06:06:13;;;;;;;24.47;15.90;;;;;;;-1.93;100.00;100615.19;5072536;28;20208;-56
2023/12/07 06:08:39;;;;;;;19.97;15.47;;;;;;;-1.97;100.00;100619.38;5071739;28;20260;-57
2023/12/07 06:11:05;;;;;;;20.93;15.87;;;;;;;-2.02;100.00;100618.50;5070481;28;20231;-56
2023/12/07 06:13:31;;;;;;;20.03;15.00;;;;;;;-2.11;100.00;100626.88;5079992;28;20517;-57
2023/12/07 06:15:56;;;;;;;20.80;15.13;;;;;;;-2.08;100.00;100618.47;5071995;28;20184;-57
2023/12/07 06:18:21;;;;;;;17.73;14.53;;;;;;;-2.15;100.00;100620.09;5072261;28;20311;-58
2023/12/07 06:20:46;;;;;;;25.20;15.20;;;;;;;-2.15;100.00;100622.63;5063650;28;20212;-57
2023/12/07 06:23:12;;;;;;;21.67;15.47;;;;;;;-2.17;100.00;100618.41;5082243;28;20228;-57
2023/12/07 06:25:38;;;;;;;20.50;15.07;;;;;;;-2.28;100.00;100624.22;5072031;28;20259;-56
2023/12/07 06:28:04;;;;;;;21.77;16.40;;;;;;;-2.17;100.00;100620.94;5072358;28;20196;-57
2023/12/07 06:30:29;;;;;;;22.90;16.40;;;;;;;-2.42;100.00;100630.84;5064311;28;20219;-57
2023/12/07 06:32:54;;;;;;;21.53;16.03;;;;;;;-2.41;100.00;100636.75;5073279;28;20189;-57
2023/12/07 06:35:20;;;;;;;21.83;16.13;;;;;;;-2.44;100.00;100640.91;5052378;28;20173;-56
2023/12/07 06:37:45;;;;;;;19.60;16.47;;;;;;;-2.46;100.00;100647.59;5051985;28;20201;-57
2023/12/07 06:40:12;;;;;;;24.17;15.87;;;;;;;-2.49;100.00;100647.59;5043056;28;20197;-57
2023/12/07 06:42:37;;;;;;;20.20;16.03;;;;;;;-2.43;100.00;100656.88;5066492;28;20169;-56
2023/12/07 06:45:03;;;;;;;23.73;17.10;;;;;;;-2.43;100.00;100661.94;5070537;28;20184;-57
2023/12/07 06:47:28;;;;;;;23.20;16.30;;;;;;;-2.47;100.00;100667.75;5060068;28;20272;-57
2023/12/07 06:49:55;;;;;;;22.77;15.97;;;;;;;-2.53;100.00;100667.69;5065442;28;20190;-57
2023/12/07 06:52:21;;;;;;;23.10;16.27;;;;;;;-2.53;100.00;100668.56;5041356;28;20278;-56
2023/12/07 06:54:46;;;;;;;20.63;15.80;;;;;;;-2.48;100.00;100671.09;5061259;28;20188;-57
2023/12/07 06:57:12;;;;;;;21.90;15.97;;;;;;;-2.40;100.00;100676.22;5069896;28;20555;-57
2023/12/07 06:59:37;;;;;;;23.83;16.27;;;;;;;-2.38;100.00;100675.41;5071402;28;20201;-57
2023/12/07 07:02:02;;;;;;;25.23;17.40;;;;;;;-2.47;100.00;100678.69;5076446;28;20224;-56
2023/12/07 07:04:28;;;;;;;24.93;17.30;;;;;;;-2.41;100.00;100679.56;5086818;28;20539;-56
2023/12/07 07:06:54;;;;;;;26.27;17.53;;;;;;;-2.21;100.00;100677.19;5069962;28;20610;-57
2023/12/07 07:09:20;;;;;;;28.17;17.57;;;;;;;-2.14;100.00;100686.50;5071092;28;20251;-57
2023/12/07 07:11:49;;;;;;;25.37;17.97;;;;;;;-2.08;100.00;100690.72;5073785;28;20681;-57
2023/12/07 07:14:15;;;;;;;26.47;16.50;;;;;;;-2.07;100.00;100677.28;5072877;28;20565;-58
2023/12/07 07:16:41;;;;;;;20.77;16.53;;;;;;;-1.79;100.00;100684.22;5069238;28;20173;-58
2023/12/07 07:19:06;;;;;;;18.93;16.40;;;;;;;-1.76;100.00;100682.53;5070763;28;20690;-58
2023/12/07 07:21:31;;;;;;;25.20;18.13;;;;;;;-1.86;100.00;100685.00;5072998;28;20587;-57
2023/12/07 07:23:57;;;;;;;25.03;17.37;;;;;;;-1.79;100.00;100684.22;5074767;28;20234;-57
2023/12/07 07:26:22;;;;;;;21.80;16.40;;;;;;;-1.67;100.00;100683.41;5071113;28;20176;-60
2023/12/07 07:28:47;;;;;;;24.97;16.97;;;;;;;-1.59;100.00;100680.91;5070900;28;20633;-57
2023/12/07 07:31:13;;;;;;;21.77;16.87;;;;;;;-1.69;100.00;100682.56;5060717;28;20968;-56
2023/12/07 07:33:38;;;;;;;23.03;16.40;;;;;;;-1.67;100.00;100690.16;5058103;28;20177;-57
2023/12/07 07:36:04;;;;;;;21.83;15.63;;;;;;;-1.79;100.00;100684.22;5061267;28;20212;-57
2023/12/07 07:38:29;;;;;;;24.53;19.40;;;;;;;-1.79;100.00;100689.25;5066550;28;20205;-56
2023/12/07 07:40:54;;;;;;;27.83;19.10;;;;;;;-1.70;100.00;100683.41;5048472;28;20239;-57
2023/12/07 07:43:19;;;;;;;27.60;19.53;;;;;;;-1.76;100.00;100678.34;5060035;28;20189;-57
2023/12/07 07:45:45;;;;;;;32.53;21.20;;;;;;;-1.87;100.00;100677.41;5052143;28;20265;-57
2023/12/07 07:48:12;;;;;;;30.03;20.33;;;;;;;-1.67;100.00;100680.91;5051416;28;20217;-57
2023/12/07 07:50:37;;;;;;;27.90;20.60;;;;;;;-1.69;100.00;100669.09;5045682;28;20319;-57
2023/12/07 07:53:03;;;;;;;36.00;20.30;;;;;;;-1.81;100.00;100662.31;5062403;28;20720;-57
2023/12/07 07:55:29;;;;;;;29.27;20.80;;;;;;;-1.74;100.00;100646.38;5051730;28;20268;-57
2023/12/07 07:57:54;;;;;;;37.50;21.83;;;;;;;-1.66;100.00;100638.88;5059695;28;20280;-57
2023/12/07 08:00:19;;;;;;;38.00;19.67;;;;;;;-1.67;100.00;100637.19;5056145;28;20307;-57
2023/12/07 08:02:46;;;;;;;32.27;19.87;;;;;;;-1.66;100.00;100646.44;5077222;28;20173;-57
2023/12/07 08:05:11;;;;;;;47.57;21.27;;;;;;;-1.47;100.00;100640.59;5051236;28;20272;-57
2023/12/07 08:07:36;;;;;;;51.80;19.27;;;;;;;-1.40;100.00;100644.00;5069993;28;20210;-57
2023/12/07 08:10:03;;;;;;;44.43;21.20;;;;;;;-1.28;100.00;100657.50;5058360;28;20234;-58
2023/12/07 08:12:28;;;;;;;68.13;20.97;;;;;;;-1.12;100.00;100668.50;5079341;28;20189;-56
2023/12/07 08:14:53;;;;;;;84.23;22.27;;;;;;;-1.17;100.00;100664.25;5055956;28;20274;-57
2023/12/07 08:17:19;;;;;;;84.17;22.07;;;;;;;-1.14;100.00;100666.81;5054562;28;20221;-57
2023/12/07 08:19:44;;;;;;;30.50;18.13;;;;;;;-1.15;100.00;100670.16;5058938;28;20189;-57
2023/12/07 08:22:10;;;;;;;23.57;16.87;;;;;;;-0.89;100.00;100673.59;5080709;28;20735;-56
2023/12/07 08:24:36;;;;;;;28.63;19.37;;;;;;;-0.84;100.00;100652.56;5073777;28;20169;-57
2023/12/07 08:27:03;;;;;;;36.03;18.70;;;;;;;-0.82;100.00;100650.88;5074046;28;20197;-57
2023/12/07 08:29:28;;;;;;;37.67;16.77;;;;;;;-0.55;100.00;100653.41;5074186;28;20227;-57
2023/12/07 08:31:54;;;;;;;29.80;17.27;;;;;;;-0.36;100.00;100651.72;5057884;27;20621;-58
2023/12/07 08:34:19;;;;;;;30.97;15.37;;;;;;;-0.28;100.00;100639.09;5074471;28;20185;-56
2023/12/07 08:36:45;;;;;;;24.40;15.37;;;;;;;-0.22;100.00;100642.44;5073286;28;20213;-56
2023/12/07 08:39:10;;;;;;;22.23;15.20;;;;;;;0.11;100.00;100639.84;5072601;28;20213;-57
2023/12/07 08:41:36;;;;;;;20.57;14.50;;;;;;;0.21;100.00;100638.13;5075229;28;20306;-57
2023/12/07 08:44:02;;;;;;;39.67;13.37;;;;;;;0.04;100.00;100633.97;5075563;28;20186;-57
2023/12/07 08:46:27;;;;;;;22.63;13.87;;;;;;;0.19;100.00;100625.50;5072541;28;20173;-57
2023/12/07 08:48:53;;;;;;;21.30;13.57;;;;;;;0.12;100.00;100624.66;5071354;28;20182;-57
2023/12/07 08:51:19;;;;;;;22.67;13.33;;;;;;;0.10;100.00;100625.50;5062685;28;20226;-57
2023/12/07 08:53:45;;;;;;;22.60;13.10;;;;;;;0.12;100.00;100619.59;5059609;28;20200;-58
2023/12/07 08:56:12;;;;;;;24.53;14.27;;;;;;;0.06;100.00;100633.97;5053009;28;20189;-57
2023/12/07 08:58:38;;;;;;;18.17;14.33;;;;;;;0.13;100.00;100633.09;5054868;28;20181;-56
2023/12/07 09:01:03;;;;;;;23.13;13.83;;;;;;;-0.18;100.00;100625.59;5063891;28;20845;-57
2023/12/07 09:03:31;;;;;;;30.87;14.90;;;;;;;-0.31;100.00;100634.03;5066100;28;20276;-57
2023/12/07 09:06:00;;;;;;;28.10;15.90;;;;;;;-0.40;100.00;100637.41;5062320;28;20174;-56
2023/12/07 09:08:25;;;;;;;28.83;16.73;;;;;;;-0.27;100.00;100648.34;5058269;28;20290;-58
2023/12/07 09:10:51;;;;;;;26.57;16.40;;;;;;;-0.02;100.00;100647.47;5050414;28;20683;-57
2023/12/07 09:13:19;;;;;;;31.60;15.40;;;;;;;-0.02;100.00;100639.88;5064727;28;20182;-57
2023/12/07 09:15:44;;;;;;;53.40;17.30;;;;;;;-0.04;100.00;100641.59;5073737;28;20643;-58
2023/12/07 09:18:12;;;;;;;28.70;16.47;;;;;;;0.17;100.00;100647.41;5057573;28;20225;-58
2023/12/07 09:20:45;;;;;;;34.03;15.90;;;;;;;0.33;100.00;100648.22;5047366;28;20368;-57
2023/12/07 09:23:11;;;;;;;54.87;17.47;;;;;;;0.42;100.00;100638.06;5066899;28;20183;-57
2023/12/07 09:25:36;;;;;;;40.50;16.70;;;;;;;0.54;100.00;100638.88;5073689;28;20193;-57
2023/12/07 09:28:01;;;;;;;37.17;15.90;;;;;;;0.48;100.00;100642.25;5073104;28;20182;-58
2023/12/07 09:30:27;;;;;;;55.13;16.13;;;;;;;0.47;100.00;100636.34;5066654;28;20339;-57
2023/12/07 09:32:52;;;;;;;36.57;14.17;;;;;;;0.42;100.00;100639.75;5082172;28;20168;-57
2023/12/07 09:35:21;;;;;;;23.50;13.70;;;;;;;0.41;100.00;100643.97;5054304;28;20179;-57
2023/12/07 09:37:49;;;;;;;27.70;13.37;;;;;;;0.31;100.00;100648.22;5053065;28;20227;-58
2023/12/07 09:40:17;;;;;;;27.80;14.40;;;;;;;0.40;100.00;100646.53;5045080;28;20197;-58
2023/12/07 09:42:42;;;;;;;23.23;14.30;;;;;;;0.32;100.00;100649.91;5066792;28;20270;-57
2023/12/07 09:45:08;;;;;;;48.00;14.87;;;;;;;0.45;100.00;100653.22;5052355;28;20265;-56
2023/12/07 09:47:37;;;;;;;32.73;14.73;;;;;;;0.39;100.00;100652.44;5051226;28;20181;-57
2023/12/07 09:50:03;;;;;;;37.03;14.70;;;;;;;0.04;100.00;100651.69;5051193;28;20266;-58
2023/12/07 09:52:28;;;;;;;41.00;14.97;;;;;;;0.12;100.00;100649.94;5064453;28;20285;-57
2023/12/07 09:54:56;;;;;;;47.67;16.10;;;;;;;0.05;100.00;100643.25;5053250;28;20221;-57
2023/12/07 09:57:21;;;;;;;75.93;15.53;;;;;;;0.02;100.00;100640.72;5051155;28;20180;-57
2023/12/07 09:59:48;;;;;;;85.47;14.60;;;;;;;-0.01;100.00;100641.56;5053356;28;20221;-57
2023/12/07 10:02:14;;;;;;;74.30;15.80;;;;;;;0.02;100.00;100633.13;5058048;28;20222;-57
2023/12/07 10:04:39;;;;;;;46.57;15.03;;;;;;;0.17;100.00;100644.06;5053157;28;20203;-57
2023/12/07 10:07:08;;;;;;;31.00;14.77;;;;;;;0.36;100.00;100638.09;5052552;28;20239;-56
2023/12/07 10:09:34;;;;;;;47.57;15.43;;;;;;;0.32;100.00;100649.06;5062948;28;20244;-58
2023/12/07 10:12:03;;;;;;;68.57;14.57;;;;;;;-0.05;100.00;100639.03;5077051;28;20218;-57
2023/12/07 10:14:29;;;;;;;50.20;14.83;;;;;;;-0.07;100.00;100641.56;5061104;28;20190;-57
2023/12/07 10:16:56;;;;;;;48.43;14.57;;;;;;;-0.18;100.00;100621.34;5052703;28;20521;-57
2023/12/07 10:19:21;;;;;;;38.83;14.27;;;;;;;-0.20;100.00;100620.53;5053344;28;20209;-57
2023/12/07 10:21:51;;;;;;;35.30;14.93;;;;;;;0.03;100.00;100616.28;5056088;28;20676;-57
2023/12/07 10:24:22;;;;;;;32.20;12.90;;;;;;;0.32;100.00;100618.69;5051770;28;20596;-57
2023/12/07 10:26:50;;;;;;;39.23;14.93;;;;;;;0.21;100.00;100610.28;5052039;28;20203;-57
2023/12/07 10:29:19;;;;;;;37.07;14.93;;;;;;;0.47;100.00;100608.50;5052615;28;20184;-57
2023/12/07 10:31:47;;;;;;;30.33;14.07;;;;;;;0.60;100.00;100614.34;5055328;28;20595;-57
2023/12/07 10:34:12;;;;;;;62.80;15.67;;;;;;;0.59;100.00;100617.72;5055494;28;20282;-57
2023/12/07 10:36:37;;;;;;;31.13;14.57;;;;;;;0.77;100.00;100611.72;5052274;28;20214;-57
2023/12/07 10:39:06;;;;;;;33.07;15.20;;;;;;;1.02;100.00;100618.31;5053226;28;20237;-58
2023/12/07 10:41:33;;;;;;;36.00;14.47;;;;;;;1.22;100.00;100616.50;5041025;28;20235;-58
2023/12/07 10:44:01;;;;;;;27.17;16.00;;;;;;;1.16;100.00;100615.72;5056932;28;20182;-58
2023/12/07 10:46:27;;;;;;;34.70;15.83;;;;;;;1.21;100.00;100613.97;5040768;28;20188;-58
2023/12/07 10:49:05;;;;;;;29.40;15.53;;;;;;;1.16;100.00;100603.88;5054303;28;20188;-58
2023/12/07 10:52:06;;;;;;;33.87;16.00;;;;;;;1.02;100.00;100603.13;5053759;28;20254;-58
2023/12/07 10:54:53;;;;;;;40.87;15.60;;;;;;;0.42;100.00;100597.56;5005090;28;20228;-56
2023/12/07 10:57:21;;;;;;;27.87;15.73;;;;;;;0.62;100.00;100600.00;5028711;28;20532;-57